sensor_id;sensor_type;location;lat;lon;timestamp;P1;durP1;ratioP1;P2;durP2;ratioP2
63398;SDS011;49533;-34.520;150.798;2022-12-18T00:03:32;0.65;;;0.45;;
63398;SDS011;49533;-34.520;150.798;2022-12-18T00:06:00;1.73;;;0.60;;
63398;SDS011;49533;-34.520;150.798;2022-12-18T00:08:27;1.20;;;0.40;;
63398;SDS011;49533;-34.520;150.798;2022-12-18T00:10:54;2.88;;;0.50;;
63398;SDS011;49533;-34.520;150.798;2022-12-18T00:16:00;0.98;;;0.30;;
63398;SDS011;49533;-34.520;150.798;2022-12-18T00:18:30;2.40;;;0.75;;
63398;SDS011;49533;-34.520;150.798;2022-12-18T00:20:58;1.67;;;0.68;;
63398;SDS011;49533;-34.520;150.798;2022-12-18T00:23:27;1.48;;;0.45;;
63398;SDS011;49533;-34.520;150.798;2022-12-18T00:25:59;3.35;;;0.70;;
63398;SDS011;49533;-34.520;150.798;2022-12-18T00:28:27;3.50;;;1.05;;
63398;SDS011;49533;-34.520;150.798;2022-12-18T00:31:00;7.22;;;1.20;;
63398;SDS011;49533;-34.520;150.798;2022-12-18T00:33:28;3.13;;;1.58;;
63398;SDS011;49533;-34.520;150.798;2022-12-18T00:36:00;6.95;;;1.15;;
63398;SDS011;49533;-34.520;150.798;2022-12-18T00:38:27;1.95;;;0.80;;
63398;SDS011;49533;-34.520;150.798;2022-12-18T00:40:55;2.22;;;0.50;;
63398;SDS011;49533;-34.520;150.798;2022-12-18T00:43:22;5.40;;;0.90;;
63398;SDS011;49533;-34.520;150.798;2022-12-18T00:45:49;2.40;;;0.80;;
63398;SDS011;49533;-34.520;150.798;2022-12-18T00:48:16;6.03;;;1.27;;
63398;SDS011;49533;-34.520;150.798;2022-12-18T00:50:44;2.90;;;1.05;;
63398;SDS011;49533;-34.520;150.798;2022-12-18T00:53:13;4.53;;;1.05;;
63398;SDS011;49533;-34.520;150.798;2022-12-18T00:55:40;2.67;;;0.70;;
63398;SDS011;49533;-34.520;150.798;2022-12-18T00:58:08;5.13;;;1.00;;
63398;SDS011;49533;-34.520;150.798;2022-12-18T01:00:37;2.60;;;1.40;;
63398;SDS011;49533;-34.520;150.798;2022-12-18T01:03:04;2.85;;;0.70;;
63398;SDS011;49533;-34.520;150.798;2022-12-18T01:05:32;2.80;;;0.65;;
63398;SDS011;49533;-34.520;150.798;2022-12-18T01:07:59;4.43;;;1.15;;
63398;SDS011;49533;-34.520;150.798;2022-12-18T01:10:26;6.05;;;0.98;;
63398;SDS011;49533;-34.520;150.798;2022-12-18T01:12:53;3.35;;;1.20;;
63398;SDS011;49533;-34.520;150.798;2022-12-18T01:15:21;8.88;;;1.33;;
63398;SDS011;49533;-34.520;150.798;2022-12-18T01:17:49;4.75;;;1.10;;
63398;SDS011;49533;-34.520;150.798;2022-12-18T01:20:18;5.10;;;1.73;;
63398;SDS011;49533;-34.520;150.798;2022-12-18T01:22:46;5.75;;;0.95;;
63398;SDS011;49533;-34.520;150.798;2022-12-18T01:25:13;4.72;;;0.85;;
63398;SDS011;49533;-34.520;150.798;2022-12-18T01:27:40;5.97;;;1.55;;
63398;SDS011;49533;-34.520;150.798;2022-12-18T01:30:07;8.27;;;1.40;;
63398;SDS011;49533;-34.520;150.798;2022-12-18T01:32:35;5.68;;;1.20;;
63398;SDS011;49533;-34.520;150.798;2022-12-18T01:35:02;7.15;;;1.48;;
63398;SDS011;49533;-34.520;150.798;2022-12-18T01:37:29;7.13;;;1.70;;
63398;SDS011;49533;-34.520;150.798;2022-12-18T01:39:56;6.28;;;1.65;;
63398;SDS011;49533;-34.520;150.798;2022-12-18T01:42:23;7.10;;;2.05;;
63398;SDS011;49533;-34.520;150.798;2022-12-18T01:44:56;4.90;;;1.23;;
63398;SDS011;49533;-34.520;150.798;2022-12-18T01:47:39;1.98;;;0.90;;
63398;SDS011;49533;-34.520;150.798;2022-12-18T01:50:19;6.63;;;1.33;;
63398;SDS011;49533;-34.520;150.798;2022-12-18T01:52:50;5.90;;;0.90;;
63398;SDS011;49533;-34.520;150.798;2022-12-18T01:55:22;4.95;;;1.00;;
63398;SDS011;49533;-34.520;150.798;2022-12-18T01:57:52;6.75;;;1.20;;
63398;SDS011;49533;-34.520;150.798;2022-12-18T02:00:22;3.58;;;0.88;;
63398;SDS011;49533;-34.520;150.798;2022-12-18T02:02:50;3.60;;;0.75;;
63398;SDS011;49533;-34.520;150.798;2022-12-18T02:05:19;4.97;;;0.80;;
63398;SDS011;49533;-34.520;150.798;2022-12-18T02:11:04;3.85;;;1.52;;
63398;SDS011;49533;-34.520;150.798;2022-12-18T02:13:46;1.77;;;0.68;;
63398;SDS011;49533;-34.520;150.798;2022-12-18T02:16:24;5.22;;;0.90;;
63398;SDS011;49533;-34.520;150.798;2022-12-18T02:19:00;3.92;;;0.90;;
63398;SDS011;49533;-34.520;150.798;2022-12-18T02:21:48;2.95;;;1.00;;
63398;SDS011;49533;-34.520;150.798;2022-12-18T02:24:29;11.10;;;2.45;;
63398;SDS011;49533;-34.520;150.798;2022-12-18T02:27:05;2.70;;;0.68;;
63398;SDS011;49533;-34.520;150.798;2022-12-18T02:29:37;6.32;;;0.95;;
63398;SDS011;49533;-34.520;150.798;2022-12-18T02:32:11;6.85;;;1.08;;
63398;SDS011;49533;-34.520;150.798;2022-12-18T02:34:43;5.13;;;1.10;;
63398;SDS011;49533;-34.520;150.798;2022-12-18T02:37:12;10.15;;;1.40;;
63398;SDS011;49533;-34.520;150.798;2022-12-18T02:39:43;5.97;;;1.30;;
63398;SDS011;49533;-34.520;150.798;2022-12-18T02:42:13;5.75;;;1.15;;
63398;SDS011;49533;-34.520;150.798;2022-12-18T02:44:43;2.78;;;1.20;;
63398;SDS011;49533;-34.520;150.798;2022-12-18T02:47:14;6.25;;;1.23;;
63398;SDS011;49533;-34.520;150.798;2022-12-18T02:49:49;5.13;;;1.13;;
63398;SDS011;49533;-34.520;150.798;2022-12-18T02:55:26;6.65;;;1.05;;
63398;SDS011;49533;-34.520;150.798;2022-12-18T02:58:14;3.08;;;1.20;;
63398;SDS011;49533;-34.520;150.798;2022-12-18T03:00:53;6.63;;;1.35;;
63398;SDS011;49533;-34.520;150.798;2022-12-18T03:03:43;3.72;;;0.85;;
63398;SDS011;49533;-34.520;150.798;2022-12-18T03:06:21;7.25;;;0.90;;
63398;SDS011;49533;-34.520;150.798;2022-12-18T03:08:56;5.18;;;1.15;;
63398;SDS011;49533;-34.520;150.798;2022-12-18T03:11:27;6.50;;;0.98;;
63398;SDS011;49533;-34.520;150.798;2022-12-18T03:14:10;3.20;;;1.35;;
63398;SDS011;49533;-34.520;150.798;2022-12-18T03:16:42;2.25;;;1.02;;
63398;SDS011;49533;-34.520;150.798;2022-12-18T03:19:11;3.58;;;1.30;;
63398;SDS011;49533;-34.520;150.798;2022-12-18T03:21:43;7.75;;;1.58;;
63398;SDS011;49533;-34.520;150.798;2022-12-18T03:24:13;4.13;;;1.42;;
63398;SDS011;49533;-34.520;150.798;2022-12-18T03:26:44;6.63;;;1.25;;
63398;SDS011;49533;-34.520;150.798;2022-12-18T03:29:14;7.57;;;1.52;;
63398;SDS011;49533;-34.520;150.798;2022-12-18T03:31:49;8.90;;;1.30;;
63398;SDS011;49533;-34.520;150.798;2022-12-18T03:34:23;16.08;;;1.70;;
63398;SDS011;49533;-34.520;150.798;2022-12-18T03:36:56;6.00;;;1.27;;
63398;SDS011;49533;-34.520;150.798;2022-12-18T03:39:24;6.22;;;1.50;;
63398;SDS011;49533;-34.520;150.798;2022-12-18T03:41:55;8.02;;;1.38;;
63398;SDS011;49533;-34.520;150.798;2022-12-18T03:44:35;4.85;;;1.25;;
63398;SDS011;49533;-34.520;150.798;2022-12-18T03:47:27;8.82;;;1.70;;
63398;SDS011;49533;-34.520;150.798;2022-12-18T03:50:18;6.55;;;1.40;;
63398;SDS011;49533;-34.520;150.798;2022-12-18T03:52:58;5.25;;;1.25;;
63398;SDS011;49533;-34.520;150.798;2022-12-18T03:55:46;3.08;;;1.02;;
63398;SDS011;49533;-34.520;150.798;2022-12-18T03:58:17;5.03;;;1.35;;
63398;SDS011;49533;-34.520;150.798;2022-12-18T04:00:47;2.17;;;1.00;;
63398;SDS011;49533;-34.520;150.798;2022-12-18T04:03:17;6.18;;;1.20;;
63398;SDS011;49533;-34.520;150.798;2022-12-18T04:05:47;3.78;;;1.13;;
63398;SDS011;49533;-34.520;150.798;2022-12-18T04:08:17;6.18;;;1.30;;
63398;SDS011;49533;-34.520;150.798;2022-12-18T04:10:45;6.85;;;1.13;;
63398;SDS011;49533;-34.520;150.798;2022-12-18T04:13:13;4.25;;;1.00;;
63398;SDS011;49533;-34.520;150.798;2022-12-18T04:15:51;9.77;;;1.45;;
63398;SDS011;49533;-34.520;150.798;2022-12-18T04:18:18;4.82;;;1.20;;
63398;SDS011;49533;-34.520;150.798;2022-12-18T04:20:46;5.47;;;1.08;;
63398;SDS011;49533;-34.520;150.798;2022-12-18T04:23:13;4.20;;;1.25;;
63398;SDS011;49533;-34.520;150.798;2022-12-18T04:25:41;3.35;;;1.02;;
63398;SDS011;49533;-34.520;150.798;2022-12-18T04:28:08;3.88;;;0.82;;
63398;SDS011;49533;-34.520;150.798;2022-12-18T04:30:35;6.45;;;1.48;;
63398;SDS011;49533;-34.520;150.798;2022-12-18T04:33:02;4.50;;;1.10;;
63398;SDS011;49533;-34.520;150.798;2022-12-18T04:35:29;3.45;;;0.93;;
63398;SDS011;49533;-34.520;150.798;2022-12-18T04:37:56;8.20;;;1.50;;
63398;SDS011;49533;-34.520;150.798;2022-12-18T04:40:24;9.27;;;1.42;;
63398;SDS011;49533;-34.520;150.798;2022-12-18T04:42:51;3.72;;;0.90;;
63398;SDS011;49533;-34.520;150.798;2022-12-18T04:45:18;5.18;;;1.25;;
63398;SDS011;49533;-34.520;150.798;2022-12-18T04:47:45;3.35;;;1.50;;
63398;SDS011;49533;-34.520;150.798;2022-12-18T04:50:12;6.00;;;0.90;;
63398;SDS011;49533;-34.520;150.798;2022-12-18T04:52:39;6.53;;;0.90;;
63398;SDS011;49533;-34.520;150.798;2022-12-18T04:55:07;3.70;;;1.08;;
63398;SDS011;49533;-34.520;150.798;2022-12-18T04:57:34;4.60;;;1.25;;
63398;SDS011;49533;-34.520;150.798;2022-12-18T05:00:02;9.60;;;1.73;;
63398;SDS011;49533;-34.520;150.798;2022-12-18T05:02:31;6.82;;;1.38;;
63398;SDS011;49533;-34.520;150.798;2022-12-18T05:04:58;3.72;;;0.90;;
63398;SDS011;49533;-34.520;150.798;2022-12-18T05:07:26;5.05;;;1.08;;
63398;SDS011;49533;-34.520;150.798;2022-12-18T05:09:53;6.97;;;1.70;;
63398;SDS011;49533;-34.520;150.798;2022-12-18T05:12:23;9.88;;;1.40;;
63398;SDS011;49533;-34.520;150.798;2022-12-18T05:14:50;2.33;;;0.90;;
63398;SDS011;49533;-34.520;150.798;2022-12-18T05:17:18;6.43;;;1.60;;
63398;SDS011;49533;-34.520;150.798;2022-12-18T05:19:45;5.70;;;1.08;;
63398;SDS011;49533;-34.520;150.798;2022-12-18T05:22:12;5.68;;;1.08;;
63398;SDS011;49533;-34.520;150.798;2022-12-18T05:24:40;3.85;;;1.15;;
63398;SDS011;49533;-34.520;150.798;2022-12-18T05:27:07;6.70;;;1.50;;
63398;SDS011;49533;-34.520;150.798;2022-12-18T05:29:34;4.63;;;1.40;;
63398;SDS011;49533;-34.520;150.798;2022-12-18T05:32:02;3.17;;;0.90;;
63398;SDS011;49533;-34.520;150.798;2022-12-18T05:34:29;3.47;;;1.05;;
63398;SDS011;49533;-34.520;150.798;2022-12-18T05:36:56;4.13;;;0.70;;
63398;SDS011;49533;-34.520;150.798;2022-12-18T05:39:23;5.80;;;1.25;;
63398;SDS011;49533;-34.520;150.798;2022-12-18T05:41:50;6.22;;;1.35;;
63398;SDS011;49533;-34.520;150.798;2022-12-18T05:44:17;3.05;;;1.35;;
63398;SDS011;49533;-34.520;150.798;2022-12-18T05:46:45;6.10;;;1.48;;
63398;SDS011;49533;-34.520;150.798;2022-12-18T05:49:12;19.20;;;4.80;;
63398;SDS011;49533;-34.520;150.798;2022-12-18T05:51:39;23.00;;;5.75;;
63398;SDS011;49533;-34.520;150.798;2022-12-18T05:54:06;22.60;;;6.20;;
63398;SDS011;49533;-34.520;150.798;2022-12-18T05:56:33;16.98;;;5.35;;
63398;SDS011;49533;-34.520;150.798;2022-12-18T05:59:01;18.70;;;5.95;;
63398;SDS011;49533;-34.520;150.798;2022-12-18T06:01:28;25.45;;;5.80;;
63398;SDS011;49533;-34.520;150.798;2022-12-18T06:03:55;23.60;;;5.95;;
63398;SDS011;49533;-34.520;150.798;2022-12-18T06:06:23;20.95;;;5.13;;
63398;SDS011;49533;-34.520;150.798;2022-12-18T06:08:53;20.00;;;5.22;;
63398;SDS011;49533;-34.520;150.798;2022-12-18T06:11:22;14.93;;;5.28;;
63398;SDS011;49533;-34.520;150.798;2022-12-18T06:13:52;24.02;;;6.50;;
63398;SDS011;49533;-34.520;150.798;2022-12-18T06:16:20;35.90;;;6.90;;
63398;SDS011;49533;-34.520;150.798;2022-12-18T06:18:47;23.10;;;5.65;;
63398;SDS011;49533;-34.520;150.798;2022-12-18T06:21:15;17.33;;;5.20;;
63398;SDS011;49533;-34.520;150.798;2022-12-18T06:23:42;16.98;;;4.80;;
63398;SDS011;49533;-34.520;150.798;2022-12-18T06:26:10;15.57;;;5.18;;
63398;SDS011;49533;-34.520;150.798;2022-12-18T06:28:38;19.17;;;5.03;;
63398;SDS011;49533;-34.520;150.798;2022-12-18T06:31:06;13.77;;;4.85;;
63398;SDS011;49533;-34.520;150.798;2022-12-18T06:33:34;12.02;;;4.60;;
63398;SDS011;49533;-34.520;150.798;2022-12-18T06:36:08;9.38;;;4.03;;
63398;SDS011;49533;-34.520;150.798;2022-12-18T06:38:38;10.65;;;3.95;;
63398;SDS011;49533;-34.520;150.798;2022-12-18T06:41:07;15.00;;;4.85;;
63398;SDS011;49533;-34.520;150.798;2022-12-18T06:43:36;16.55;;;4.25;;
63398;SDS011;49533;-34.520;150.798;2022-12-18T06:46:03;11.20;;;3.75;;
63398;SDS011;49533;-34.520;150.798;2022-12-18T06:48:31;12.95;;;4.55;;
63398;SDS011;49533;-34.520;150.798;2022-12-18T06:50:58;15.32;;;4.43;;
63398;SDS011;49533;-34.520;150.798;2022-12-18T06:53:26;16.65;;;4.00;;
63398;SDS011;49533;-34.520;150.798;2022-12-18T06:56:02;11.27;;;3.22;;
63398;SDS011;49533;-34.520;150.798;2022-12-18T06:58:30;14.52;;;4.25;;
63398;SDS011;49533;-34.520;150.798;2022-12-18T07:01:01;9.80;;;3.72;;
63398;SDS011;49533;-34.520;150.798;2022-12-18T07:03:29;10.70;;;4.32;;
63398;SDS011;49533;-34.520;150.798;2022-12-18T07:05:57;10.88;;;4.10;;
63398;SDS011;49533;-34.520;150.798;2022-12-18T07:08:28;10.38;;;3.20;;
63398;SDS011;49533;-34.520;150.798;2022-12-18T07:10:56;10.93;;;3.70;;
63398;SDS011;49533;-34.520;150.798;2022-12-18T07:13:23;7.45;;;3.53;;
63398;SDS011;49533;-34.520;150.798;2022-12-18T07:15:50;8.10;;;3.53;;
63398;SDS011;49533;-34.520;150.798;2022-12-18T07:18:17;8.43;;;3.03;;
63398;SDS011;49533;-34.520;150.798;2022-12-18T07:20:44;13.00;;;3.75;;
63398;SDS011;49533;-34.520;150.798;2022-12-18T07:23:11;9.88;;;3.13;;
63398;SDS011;49533;-34.520;150.798;2022-12-18T07:25:39;10.60;;;3.63;;
63398;SDS011;49533;-34.520;150.798;2022-12-18T07:28:07;8.30;;;3.35;;
63398;SDS011;49533;-34.520;150.798;2022-12-18T07:30:36;6.20;;;2.50;;
63398;SDS011;49533;-34.520;150.798;2022-12-18T07:33:04;7.20;;;2.67;;
63398;SDS011;49533;-34.520;150.798;2022-12-18T07:35:32;6.78;;;3.17;;
63398;SDS011;49533;-34.520;150.798;2022-12-18T07:37:59;6.00;;;2.78;;
63398;SDS011;49533;-34.520;150.798;2022-12-18T07:40:26;5.10;;;2.58;;
63398;SDS011;49533;-34.520;150.798;2022-12-18T07:42:53;6.13;;;2.58;;
63398;SDS011;49533;-34.520;150.798;2022-12-18T07:45:21;6.15;;;2.30;;
63398;SDS011;49533;-34.520;150.798;2022-12-18T07:47:48;6.63;;;2.38;;
63398;SDS011;49533;-34.520;150.798;2022-12-18T07:50:15;6.13;;;2.20;;
63398;SDS011;49533;-34.520;150.798;2022-12-18T07:52:42;6.07;;;1.83;;
63398;SDS011;49533;-34.520;150.798;2022-12-18T07:55:09;5.22;;;2.08;;
63398;SDS011;49533;-34.520;150.798;2022-12-18T07:57:36;6.13;;;2.13;;
63398;SDS011;49533;-34.520;150.798;2022-12-18T08:00:04;4.50;;;1.90;;
63398;SDS011;49533;-34.520;150.798;2022-12-18T08:02:31;4.18;;;1.60;;
63398;SDS011;49533;-34.520;150.798;2022-12-18T08:04:58;4.70;;;1.95;;
63398;SDS011;49533;-34.520;150.798;2022-12-18T08:07:25;5.47;;;1.55;;
63398;SDS011;49533;-34.520;150.798;2022-12-18T08:09:52;2.47;;;1.70;;
63398;SDS011;49533;-34.520;150.798;2022-12-18T08:12:19;3.42;;;1.67;;
63398;SDS011;49533;-34.520;150.798;2022-12-18T08:14:47;4.88;;;1.95;;
63398;SDS011;49533;-34.520;150.798;2022-12-18T08:17:14;4.63;;;1.52;;
63398;SDS011;49533;-34.520;150.798;2022-12-18T08:19:41;10.50;;;2.17;;
63398;SDS011;49533;-34.520;150.798;2022-12-18T08:22:08;7.53;;;1.92;;
63398;SDS011;49533;-34.520;150.798;2022-12-18T08:24:35;2.47;;;1.25;;
63398;SDS011;49533;-34.520;150.798;2022-12-18T08:27:03;4.20;;;1.55;;
63398;SDS011;49533;-34.520;150.798;2022-12-18T08:29:30;3.20;;;1.27;;
63398;SDS011;49533;-34.520;150.798;2022-12-18T08:31:58;4.15;;;2.00;;
63398;SDS011;49533;-34.520;150.798;2022-12-18T08:34:25;2.65;;;1.10;;
63398;SDS011;49533;-34.520;150.798;2022-12-18T08:36:52;3.53;;;1.40;;
63398;SDS011;49533;-34.520;150.798;2022-12-18T08:39:19;5.22;;;1.30;;
63398;SDS011;49533;-34.520;150.798;2022-12-18T08:41:46;2.88;;;1.27;;
63398;SDS011;49533;-34.520;150.798;2022-12-18T08:44:33;4.80;;;1.02;;
63398;SDS011;49533;-34.520;150.798;2022-12-18T08:47:03;3.58;;;1.42;;
63398;SDS011;49533;-34.520;150.798;2022-12-18T08:49:33;3.95;;;1.20;;
63398;SDS011;49533;-34.520;150.798;2022-12-18T08:52:01;2.92;;;1.15;;
63398;SDS011;49533;-34.520;150.798;2022-12-18T08:54:28;4.43;;;1.40;;
63398;SDS011;49533;-34.520;150.798;2022-12-18T08:56:55;4.32;;;1.35;;
63398;SDS011;49533;-34.520;150.798;2022-12-18T08:59:23;2.97;;;1.00;;
63398;SDS011;49533;-34.520;150.798;2022-12-18T09:01:50;8.40;;;1.48;;
63398;SDS011;49533;-34.520;150.798;2022-12-18T09:04:21;4.38;;;0.90;;
63398;SDS011;49533;-34.520;150.798;2022-12-18T09:06:48;3.38;;;1.08;;
63398;SDS011;49533;-34.520;150.798;2022-12-18T09:09:15;4.47;;;1.20;;
63398;SDS011;49533;-34.520;150.798;2022-12-18T09:11:43;2.80;;;1.00;;
63398;SDS011;49533;-34.520;150.798;2022-12-18T09:14:10;2.58;;;1.10;;
63398;SDS011;49533;-34.520;150.798;2022-12-18T09:16:37;3.88;;;1.00;;
63398;SDS011;49533;-34.520;150.798;2022-12-18T09:19:04;1.73;;;0.68;;
63398;SDS011;49533;-34.520;150.798;2022-12-18T09:21:33;2.42;;;1.23;;
63398;SDS011;49533;-34.520;150.798;2022-12-18T09:24:01;4.03;;;0.82;;
63398;SDS011;49533;-34.520;150.798;2022-12-18T09:26:28;2.97;;;0.85;;
63398;SDS011;49533;-34.520;150.798;2022-12-18T09:28:56;4.45;;;1.48;;
63398;SDS011;49533;-34.520;150.798;2022-12-18T09:31:23;5.97;;;1.27;;
63398;SDS011;49533;-34.520;150.798;2022-12-18T09:33:51;2.33;;;0.82;;
63398;SDS011;49533;-34.520;150.798;2022-12-18T09:36:18;8.80;;;1.98;;
63398;SDS011;49533;-34.520;150.798;2022-12-18T09:38:45;2.97;;;0.85;;
63398;SDS011;49533;-34.520;150.798;2022-12-18T09:41:21;5.13;;;1.13;;
63398;SDS011;49533;-34.520;150.798;2022-12-18T09:44:02;2.05;;;0.65;;
63398;SDS011;49533;-34.520;150.798;2022-12-18T09:46:38;1.83;;;0.77;;
63398;SDS011;49533;-34.520;150.798;2022-12-18T09:49:12;1.10;;;0.75;;
63398;SDS011;49533;-34.520;150.798;2022-12-18T09:51:48;4.43;;;1.20;;
63398;SDS011;49533;-34.520;150.798;2022-12-18T09:54:22;2.97;;;1.10;;
63398;SDS011;49533;-34.520;150.798;2022-12-18T09:56:56;4.13;;;1.00;;
63398;SDS011;49533;-34.520;150.798;2022-12-18T09:59:25;2.22;;;0.70;;
63398;SDS011;49533;-34.520;150.798;2022-12-18T10:01:58;3.33;;;1.35;;
63398;SDS011;49533;-34.520;150.798;2022-12-18T10:04:25;3.35;;;0.88;;
63398;SDS011;49533;-34.520;150.798;2022-12-18T10:06:59;4.22;;;0.85;;
63398;SDS011;49533;-34.520;150.798;2022-12-18T10:09:40;3.00;;;1.40;;
63398;SDS011;49533;-34.520;150.798;2022-12-18T10:12:32;5.15;;;1.13;;
63398;SDS011;49533;-34.520;150.798;2022-12-18T10:15:19;4.63;;;1.35;;
63398;SDS011;49533;-34.520;150.798;2022-12-18T10:18:02;3.85;;;1.13;;
63398;SDS011;49533;-34.520;150.798;2022-12-18T10:20:41;3.42;;;1.10;;
63398;SDS011;49533;-34.520;150.798;2022-12-18T10:23:18;6.20;;;1.33;;
63398;SDS011;49533;-34.520;150.798;2022-12-18T10:25:55;1.88;;;0.73;;
63398;SDS011;49533;-34.520;150.798;2022-12-18T10:28:32;2.78;;;1.13;;
63398;SDS011;49533;-34.520;150.798;2022-12-18T10:31:02;5.80;;;0.98;;
63398;SDS011;49533;-34.520;150.798;2022-12-18T10:33:32;1.88;;;0.82;;
63398;SDS011;49533;-34.520;150.798;2022-12-18T10:36:00;2.15;;;0.85;;
63398;SDS011;49533;-34.520;150.798;2022-12-18T10:38:29;4.15;;;1.58;;
63398;SDS011;49533;-34.520;150.798;2022-12-18T10:40:59;3.63;;;1.00;;
63398;SDS011;49533;-34.520;150.798;2022-12-18T10:43:33;4.38;;;1.30;;
63398;SDS011;49533;-34.520;150.798;2022-12-18T10:48:52;1.40;;;1.08;;
63398;SDS011;49533;-34.520;150.798;2022-12-18T10:51:25;4.80;;;1.67;;
63398;SDS011;49533;-34.520;150.798;2022-12-18T10:53:58;4.35;;;1.00;;
63398;SDS011;49533;-34.520;150.798;2022-12-18T10:56:32;4.07;;;1.40;;
63398;SDS011;49533;-34.520;150.798;2022-12-18T10:59:02;5.03;;;1.10;;
63398;SDS011;49533;-34.520;150.798;2022-12-18T11:04:18;4.40;;;1.10;;
63398;SDS011;49533;-34.520;150.798;2022-12-18T11:06:53;4.38;;;1.25;;
63398;SDS011;49533;-34.520;150.798;2022-12-18T11:09:23;2.53;;;1.05;;
63398;SDS011;49533;-34.520;150.798;2022-12-18T11:11:54;3.50;;;1.70;;
63398;SDS011;49533;-34.520;150.798;2022-12-18T11:14:25;3.58;;;1.02;;
63398;SDS011;49533;-34.520;150.798;2022-12-18T11:17:00;4.50;;;1.38;;
63398;SDS011;49533;-34.520;150.798;2022-12-18T11:19:33;3.72;;;0.77;;
63398;SDS011;49533;-34.520;150.798;2022-12-18T11:22:03;3.83;;;1.25;;
63398;SDS011;49533;-34.520;150.798;2022-12-18T11:24:54;5.68;;;1.23;;
63398;SDS011;49533;-34.520;150.798;2022-12-18T11:27:26;3.65;;;1.15;;
63398;SDS011;49533;-34.520;150.798;2022-12-18T11:32:37;2.85;;;1.38;;
63398;SDS011;49533;-34.520;150.798;2022-12-18T11:35:15;3.58;;;1.20;;
63398;SDS011;49533;-34.520;150.798;2022-12-18T11:37:56;3.20;;;1.17;;
63398;SDS011;49533;-34.520;150.798;2022-12-18T11:40:34;4.55;;;1.40;;
63398;SDS011;49533;-34.520;150.798;2022-12-18T11:43:07;3.53;;;1.35;;
63398;SDS011;49533;-34.520;150.798;2022-12-18T11:45:45;6.20;;;1.45;;
63398;SDS011;49533;-34.520;150.798;2022-12-18T11:48:21;3.20;;;0.80;;
63398;SDS011;49533;-34.520;150.798;2022-12-18T11:50:57;4.40;;;1.08;;
63398;SDS011;49533;-34.520;150.798;2022-12-18T11:53:27;2.53;;;1.10;;
63398;SDS011;49533;-34.520;150.798;2022-12-18T11:56:06;3.78;;;1.25;;
63398;SDS011;49533;-34.520;150.798;2022-12-18T11:59:01;3.60;;;1.45;;
63398;SDS011;49533;-34.520;150.798;2022-12-18T12:01:50;6.97;;;2.15;;
63398;SDS011;49533;-34.520;150.798;2022-12-18T12:04:34;4.20;;;1.37;;
63398;SDS011;49533;-34.520;150.798;2022-12-18T12:10:26;5.97;;;1.50;;
63398;SDS011;49533;-34.520;150.798;2022-12-18T12:13:12;5.77;;;1.13;;
63398;SDS011;49533;-34.520;150.798;2022-12-18T12:15:56;5.38;;;1.75;;
63398;SDS011;49533;-34.520;150.798;2022-12-18T12:18:49;6.50;;;1.80;;
63398;SDS011;49533;-34.520;150.798;2022-12-18T12:21:41;5.80;;;1.98;;
63398;SDS011;49533;-34.520;150.798;2022-12-18T12:27:17;5.15;;;1.42;;
63398;SDS011;49533;-34.520;150.798;2022-12-18T12:30:08;7.70;;;1.70;;
63398;SDS011;49533;-34.520;150.798;2022-12-18T12:32:55;4.05;;;1.58;;
63398;SDS011;49533;-34.520;150.798;2022-12-18T12:35:40;5.30;;;1.67;;
63398;SDS011;49533;-34.520;150.798;2022-12-18T12:38:22;5.80;;;1.75;;
63398;SDS011;49533;-34.520;150.798;2022-12-18T12:40:56;7.35;;;2.33;;
63398;SDS011;49533;-34.520;150.798;2022-12-18T12:43:33;7.50;;;1.38;;
63398;SDS011;49533;-34.520;150.798;2022-12-18T12:46:07;6.30;;;1.77;;
63398;SDS011;49533;-34.520;150.798;2022-12-18T12:48:42;4.63;;;1.60;;
63398;SDS011;49533;-34.520;150.798;2022-12-18T12:51:26;4.63;;;1.63;;
63398;SDS011;49533;-34.520;150.798;2022-12-18T12:53:58;7.32;;;1.88;;
63398;SDS011;49533;-34.520;150.798;2022-12-18T12:56:32;5.60;;;2.03;;
63398;SDS011;49533;-34.520;150.798;2022-12-18T13:01:53;8.63;;;1.85;;
63398;SDS011;49533;-34.520;150.798;2022-12-18T13:04:42;6.05;;;2.25;;
63398;SDS011;49533;-34.520;150.798;2022-12-18T13:07:26;9.15;;;2.75;;
63398;SDS011;49533;-34.520;150.798;2022-12-18T13:12:56;7.57;;;1.90;;
63398;SDS011;49533;-34.520;150.798;2022-12-18T13:15:37;13.20;;;3.55;;
63398;SDS011;49533;-34.520;150.798;2022-12-18T13:18:13;7.60;;;2.60;;
63398;SDS011;49533;-34.520;150.798;2022-12-18T13:20:48;8.65;;;2.80;;
63398;SDS011;49533;-34.520;150.798;2022-12-18T13:23:30;8.20;;;2.40;;
63398;SDS011;49533;-34.520;150.798;2022-12-18T13:28:57;8.98;;;1.85;;
63398;SDS011;49533;-34.520;150.798;2022-12-18T13:34:27;12.20;;;2.72;;
63398;SDS011;49533;-34.520;150.798;2022-12-18T13:37:33;5.05;;;1.92;;
63398;SDS011;49533;-34.520;150.798;2022-12-18T13:39:55;12.18;;;2.20;;
63398;SDS011;49533;-34.520;150.798;2022-12-18T13:42:31;9.82;;;3.03;;
63398;SDS011;49533;-34.520;150.798;2022-12-18T13:48:14;10.73;;;2.50;;
63398;SDS011;49533;-34.520;150.798;2022-12-18T13:50:49;13.25;;;2.80;;
63398;SDS011;49533;-34.520;150.798;2022-12-18T13:53:22;6.95;;;2.58;;
63398;SDS011;49533;-34.520;150.798;2022-12-18T13:55:53;11.10;;;2.75;;
63398;SDS011;49533;-34.520;150.798;2022-12-18T13:58:20;8.38;;;2.42;;
63398;SDS011;49533;-34.520;150.798;2022-12-18T14:00:47;11.30;;;2.78;;
63398;SDS011;49533;-34.520;150.798;2022-12-18T14:03:17;5.97;;;1.88;;
63398;SDS011;49533;-34.520;150.798;2022-12-18T14:05:51;10.93;;;3.40;;
63398;SDS011;49533;-34.520;150.798;2022-12-18T14:08:22;15.02;;;2.85;;
63398;SDS011;49533;-34.520;150.798;2022-12-18T14:10:51;10.45;;;2.83;;
63398;SDS011;49533;-34.520;150.798;2022-12-18T14:13:24;9.65;;;2.45;;
63398;SDS011;49533;-34.520;150.798;2022-12-18T14:15:56;8.27;;;1.67;;
63398;SDS011;49533;-34.520;150.798;2022-12-18T14:18:27;11.73;;;2.40;;
63398;SDS011;49533;-34.520;150.798;2022-12-18T14:21:03;7.85;;;2.22;;
63398;SDS011;49533;-34.520;150.798;2022-12-18T14:23:36;6.57;;;2.28;;
63398;SDS011;49533;-34.520;150.798;2022-12-18T14:28:55;12.32;;;2.95;;
63398;SDS011;49533;-34.520;150.798;2022-12-18T14:31:24;6.55;;;2.40;;
63398;SDS011;49533;-34.520;150.798;2022-12-18T14:33:53;6.45;;;2.00;;
63398;SDS011;49533;-34.520;150.798;2022-12-18T14:36:22;9.48;;;2.20;;
63398;SDS011;49533;-34.520;150.798;2022-12-18T14:38:53;4.72;;;1.70;;
63398;SDS011;49533;-34.520;150.798;2022-12-18T14:41:21;8.65;;;2.55;;
63398;SDS011;49533;-34.520;150.798;2022-12-18T14:43:50;9.93;;;2.28;;
63398;SDS011;49533;-34.520;150.798;2022-12-18T14:46:30;9.27;;;2.90;;
63398;SDS011;49533;-34.520;150.798;2022-12-18T14:49:04;9.48;;;1.88;;
63398;SDS011;49533;-34.520;150.798;2022-12-18T14:51:53;8.48;;;2.97;;
63398;SDS011;49533;-34.520;150.798;2022-12-18T14:54:22;6.30;;;1.83;;
63398;SDS011;49533;-34.520;150.798;2022-12-18T14:56:53;11.40;;;2.65;;
63398;SDS011;49533;-34.520;150.798;2022-12-18T14:59:32;8.88;;;2.20;;
63398;SDS011;49533;-34.520;150.798;2022-12-18T15:02:01;6.38;;;2.28;;
63398;SDS011;49533;-34.520;150.798;2022-12-18T15:04:38;9.32;;;2.30;;
63398;SDS011;49533;-34.520;150.798;2022-12-18T15:07:09;9.13;;;2.13;;
63398;SDS011;49533;-34.520;150.798;2022-12-18T15:09:43;7.15;;;2.58;;
63398;SDS011;49533;-34.520;150.798;2022-12-18T15:12:36;10.82;;;3.40;;
63398;SDS011;49533;-34.520;150.798;2022-12-18T15:15:43;5.80;;;1.63;;